aviador You're here:

LRBM Decoded Metar

BAIA MARE in ROMANIA
Report Time2018-05-23 20:30:00
UTC Time2018-05-23 20:49:26
Flight Rules vfr VFR
Wind010° at 03 kt
W.Decomp.*RWY 28: 0.2 kt HW 3.0 kt RCW
W.Rank010° ranks 32
Current wind is below 010° avg. (3.2)
Visibility9999 m
Phenomena:N/A
Clouds:Few 065 Hf
Scattered 230 Hf
Expected CloudBase > 1,600 ft AGL from Temp-Dew spread
CeilingNone
Temp18°C (ISA +4)
Dew Point14°C (78% RH)
QNH1017 hPa
Density Alt1,181 ft
Elevation607 ft
Report Wrong Elevation
Raw Report
METAR LRBM 232030Z AUTO 01003KT 9999 FEW065/// SCT230/// 18/14 Q1017=

Extra information for LRBM:More info

Metar Taf Metar & Taf Last 4 Metars F.Rules Stats Wind Profile Meteogram Temp Stats Airport Information Weather charts Add Link Nearby VenuesMetar ALERT Operation Metar Decoded Social comments